Latest Coastal Weather Observations for Eucla

IDS60701

Issued at 2:01 am CST Friday 27 May 2016 (issued every 10 minutes, with the page automatically refreshed every 10 minutes)

About coastal observations | Map of coastal stations | Coastal observations for SA | Marine services | Other Formats
Station Details ID: 011003 Name: EUCLA Lat: -31.68 Lon: 128.90 Height: 93.1 m
Data from the previous 72 hours. | See also: Recent months at Eucla
Date/Time
CST
Temp

°C
Wind Pressure Rain
since 9am
mm
Weather Cloud Vis
km
Sea
Height
m
Swell
Dir
 
Speed
knots
Gust
knots
hPa Trend Height
m
Period
s
Dir
27/02:00am 13.1 WNW 6 8 1018.9 - 0.2 - - - - - - -
27/01:30am 13.4 WNW 5 7 1018.7 - 0.2 - - - - - - -
27/01:00am 13.6 WSW 8 11 1018.7 - 0.2 - - - - - - -
27/12:30am 13.4 W 8 12 1018.8 - 0.2 - - - - - - -
27/12:00am 13.5 WSW 8 12 1018.6 - 0.2 - - - - - - -
 
Date/Time
CST
Temp

°C
Wind Pressure Rain
since 9am
mm
Weather Cloud Vis
km
Sea
Height
m
Swell
Dir
 
Speed
knots
Gust
knots
hPa Trend Height
m
Period
s
Dir
26/11:30pm 13.4 WSW 8 14 1018.5 - 0.2 - - - - - - -
26/11:00pm 14.1 WSW 9 15 1018.3 - 0.2 - - - - - - -
26/10:30pm 14.7 WSW 9 13 1018.0 - 0.2 - - - - - - -
26/10:00pm 14.6 WSW 8 14 1017.9 - 0.2 - - - - - - -
26/09:30pm 15.0 WSW 8 11 1017.5 - 0.2 - - - - - - -
26/09:00pm 15.5 W 8 12 1017.5 - 0.2 - - - - - - -
26/08:30pm 15.6 W 7 11 1017.1 - 0.2 - - - - - - -
26/08:00pm 14.5 WNW 5 6 1016.9 - 0.2 - - - - - - -
26/07:30pm 14.0 WNW 5 6 1016.6 - 0.2 - - - - - - -
26/07:00pm 15.4 W 7 9 1016.1 - 0.2 - - - - - - -
26/06:30pm 15.3 NW 6 8 1015.5 - 0.2 - - - - - - -
26/06:00pm 16.0 WNW 5 7 1015.3 - 0.2 - - - - - - -
26/05:30pm 16.9 WNW 8 10 1015.0 - 0.2 - - - - - - -
26/05:00pm 17.7 W 8 12 1014.5 - 0.2 - - - - - - -
26/04:30pm 17.7 WNW 9 14 1014.1 - 0.2 Fine Partly cloudy 40 - - - -
26/04:00pm 18.7 WNW 9 13 1013.7 - 0.2 - - - - - - -
26/03:30pm 18.5 WNW 9 14 1013.4 - 0.2 - - - - - - -
26/03:00pm 18.3 W 7 10 1013.5 - 0.2 - - - - - - -
26/02:30pm 18.1 WSW 7 10 1013.7 - 0.2 - - - - - - -
26/02:00pm 18.2 WSW 10 15 1014.0 - 0.2 - - - - - - -
26/01:30pm 18.1 WSW 9 13 1013.9 - 0.2 - - - - - - -
26/01:00pm 17.1 SW 9 16 1014.0 - 0.2 - - - - - - -
26/12:30pm 17.1 WSW 8 13 1014.4 - 0.2 - - - - - - -
26/12:00pm 17.3 W 9 14 1014.4 - 0.2 - - - - - - -
26/11:30am 17.6 NW 8 11 1014.6 - 0.2 - - - - - - -
26/11:00am 15.9 NNW 10 15 1014.1 - 0.2 - - - - - - -
26/10:30am 15.3 NNW 8 11 1014.6 - 1.4 Haze Mostly cloudy 25 - - - -
26/10:00am 13.5 NNW 8 10 1014.2 - 1.4 - - - - - - -
26/09:30am 12.9 NNW 6 9 1014.2 - 1.4 - - - - - - -
26/09:00am 12.1 NNW 7 9 1013.7 - 1.4 - - - - - - -
26/08:30am 11.1 NNW 7 9 1013.5 - 1.4 - - - - - - -
26/08:00am 10.8 NNW 7 10 1013.3 - 1.4 - - - - - - -
26/07:30am 11.6 NNW 6 7 1013.0 - 1.4 - - - - - - -
26/07:00am 11.1 NNW 6 7 1012.9 - 1.4 - - - - - - -
26/06:30am 11.3 NNW 6 7 1012.8 - 1.4 - - - - - - -
26/06:00am 11.5 NW 7 9 1012.9 - 1.4 - - - - - - -
26/05:30am 10.5 NNW 6 7 1012.7 - 1.4 - - - - - - -
26/05:00am 10.3 NNW 6 7 1012.4 - 1.4 - - - - - - -
26/04:30am 10.5 N 4 5 1012.0 - 1.4 - - - - - - -
26/04:00am 11.0 N 6 7 1012.2 - 1.4 - - - - - - -
26/03:30am 10.8 NNW 5 6 1012.3 - 1.4 - - - - - - -
26/03:00am 11.1 NNW 5 6 1012.4 - 1.4 - - - - - - -
26/02:30am 11.4 NNW 4 5 1012.8 - 1.4 - - - - - - -
26/02:00am 11.5 NNW 5 6 1012.5 - 1.4 - - - - - - -
26/01:30am 11.3 NNW 5 6 1012.3 - 1.4 - - - - - - -
26/01:00am 11.7 NNW 5 5 1012.4 - 1.4 - - - - - - -
26/12:30am 11.7 N 5 5 1012.7 - 1.4 - - - - - - -
26/12:00am 11.8 N 4 5 1013.0 - 1.4 - - - - - - -
 
Date/Time
CST
Temp

°C
Wind Pressure Rain
since 9am
mm
Weather Cloud Vis
km
Sea
Height
m
Swell
Dir
 
Speed
knots
Gust
knots
hPa Trend Height
m
Period
s
Dir
25/11:30pm 11.6 NNW 5 5 1012.9 - 1.4 - - - - - - -
25/11:00pm 11.5 NW 3 4 1013.0 - 1.4 - - - - - - -
25/10:30pm 12.1 NNW 4 4 1013.1 - 1.4 - - - - - - -
25/10:00pm 12.5 NNW 5 5 1013.1 - 1.4 - - - - - - -
25/09:30pm 13.0 WNW 4 4 1012.9 - 1.4 - - - - - - -
25/09:00pm 13.9 W 5 6 1012.8 - 1.4 - - - - - - -
25/08:30pm 13.4 W 5 6 1012.5 - 1.4 - - - - - - -
25/08:00pm 13.5 W 5 5 1012.3 - 1.4 - - - - - - -
25/07:30pm 14.4 W 3 4 1011.9 - 1.4 - - - - - - -
25/07:00pm 15.2 WSW 4 5 1011.6 - 1.4 - - - - - - -
25/06:30pm 15.7 SW 5 6 1011.0 - 1.4 - - - - - - -
25/06:00pm 16.0 SW 5 6 1010.7 - 1.4 - - - - - - -
25/05:30pm 16.4 SW 6 8 1010.2 - 1.4 - - - - - - -
25/05:00pm 16.6 SSW 7 9 1009.9 - 1.4 - - - - - - -
25/04:30pm 17.1 SW 7 10 1009.6 - 1.4 Haze Partly cloudy 25 - - - -
25/04:00pm 16.9 SW 5 8 1009.3 - 1.4 - - - - - - -
25/03:30pm 16.6 SW 6 9 1009.1 - 1.4 - - - - - - -
25/03:00pm 16.7 SW 7 10 1008.9 - 1.4 - - - - - - -
25/02:30pm 16.6 WSW 6 9 1008.9 - 1.4 - - - - - - -
25/02:00pm 16.4 WSW 5 8 1008.7 - 1.4 - - - - - - -
25/01:30pm 15.7 WSW 5 7 1008.7 - 1.4 - - - - - - -
25/01:00pm 15.0 SW 5 7 1008.9 - 1.4 - - - - - - -
25/12:30pm 14.2 SW 7 12 1009.7 - 1.4 - - - - - - -
25/12:00pm 14.2 SW 8 12 1010.1 - 0.8 - - - - - - -
25/11:30am 15.9 W 7 9 1010.0 - 0.0 - - - - - - -
25/11:00am 15.9 NW 6 9 1009.3 - 0.0 - - - - - - -
25/10:30am 15.7 WNW 7 10 1010.2 - 4.2 Drizzle Cloudy 10 - - - -
25/10:00am 15.4 NNW 8 10 1009.7 - 4.2 - - - - - - -
25/09:30am 15.2 N 8 11 1009.7 - 4.2 - - - - - - -
25/09:00am 14.6 NNW 8 11 1009.7 - 4.2 - - - - - - -
25/08:30am 14.4 N 7 10 1009.6 - 4.2 - - - - - - -
25/08:00am 14.3 N 7 9 1009.9 - 4.0 - - - - - - -
25/07:30am 14.3 NNW 6 8 1009.9 - 4.0 Recent precip. - - - - - -
25/07:00am 14.2 NNW 5 6 1009.6 - 4.0 - - - - - - -
25/06:30am 14.3 NNW 5 6 1009.4 - 3.2 - - - - - - -
25/06:00am 14.5 NNW 5 6 1008.7 - 3.0 - - - - - - -
25/05:30am 14.5 W 4 6 1008.5 - 3.0 - - - - - - -
25/05:00am 14.6 NW 5 7 1008.7 - 3.0 - - - - - - -
25/04:30am 14.7 WNW 5 7 1009.0 - 2.2 Rain - - - - - -
25/04:00am 14.5 NW 4 5 1008.9 - 2.0 - - - - - - -
25/03:30am 14.7 WSW 4 7 1009.3 - 2.0 - - - - - - -
25/03:00am 14.8 SW 6 9 1009.1 - 1.2 - - - - - - -
25/02:30am 15.1 SSW 7 10 1008.9 - 1.0 - - - - - - -
25/02:00am 15.3 SW 6 9 1009.6 - 1.0 - - - - - - -
25/01:30am 15.5 WSW 5 7 1010.1 - 0.8 Recent precip. - - - - - -
25/01:00am 15.6 WSW 7 11 1010.6 - 0.8 - - - - - - -
25/12:30am 16.6 WSW 9 15 1010.7 - 0.4 - - - - - - -
25/12:00am 16.7 WNW 9 14 1011.0 - 0.2 - - - - - - -
 
Date/Time
CST
Temp

°C
Wind Pressure Rain
since 9am
mm
Weather Cloud Vis
km
Sea
Height
m
Swell
Dir
 
Speed
knots
Gust
knots
hPa Trend Height
m
Period
s
Dir
24/11:30pm 17.2 SW 7 9 1010.7 - 0.0 - - - - - - -
24/11:00pm 17.6 WSW 6 9 1011.6 - 0.0 - - - - - - -
24/10:30pm 17.7 SW 6 8 1010.9 - 0.0 - - - - - - -
24/10:00pm 18.7 W 7 10 1010.1 - 0.0 - - - - - - -
24/09:30pm 20.7 WSW 9 15 1009.7 - 0.0 - - - - - - -
24/09:00pm 21.5 WSW 13 20 1009.9 - 0.0 - - - - - - -
24/08:48pm 23.4 W 8 22 1009.6 - 0.0 - - - - - - -
24/08:30pm 24.1 WNW 6 9 1009.2 - 0.0 - - - - - - -
24/08:00pm 24.1 WNW 7 10 1009.0 - 0.0 - - - - - - -
24/07:30pm 23.3 NW 11 19 1009.3 - 0.0 - - - - - - -
24/07:00pm 25.0 NNW 9 14 1008.4 - 0.0 - - - - - - -
24/06:30pm 25.1 NNW 9 13 1007.9 - 0.0 - - - - - - -
24/06:00pm 25.8 NNW 9 13 1007.7 - 0.0 - - - - - - -
24/05:30pm 26.5 NNW 10 16 1007.6 - 0.0 - - - - - - -
24/05:00pm 27.5 NW 13 19 1007.7 - 0.0 - - - - - - -
24/04:30pm 27.8 NW 15 25 1007.8 - 0.0 Fine Partly cloudy 40 - - - -
24/04:00pm 28.2 NW 18 29 1008.0 - 0.0 - - - - - - -
24/03:39pm 28.2 NW 16 26 1007.9 - 0.0 - - - - - - -
24/03:30pm 27.6 NW 16 22 1007.9 - 0.0 - - - - - - -
24/03:21pm 27.8 NW 17 27 1007.9 - 0.0 - - - - - - -
24/03:00pm 27.5 NW 17 25 1008.0 - 0.0 - - - - - - -
24/02:40pm 27.5 NW 15 25 1008.4 - 0.0 - - - - - - -
24/02:30pm 27.6 NW 16 23 1008.7 - 0.0 - - - - - - -
24/02:05pm 27.1 NNW 15 25 1009.0 - 0.0 - - - - - - -
24/02:00pm 27.3 NNW 15 24 1009.1 - 0.0 - - - - - - -
24/01:50pm 26.8 NNW 17 27 1009.3 - 0.0 - - - - - - -
24/01:30pm 25.6 NNW 12 21 1009.7 - 0.0 - - - - - - -
24/01:00pm 26.2 NNW 14 23 1010.3 - 0.0 - - - - - - -
24/12:30pm 24.7 NNW 14 20 1011.6 - 0.0 - - - - - - -
24/12:00pm 23.2 N 13 18 1012.4 - 0.0 - - - - - - -
24/11:30am 21.4 N 14 19 1012.7 - 0.0 - - - - - - -
24/11:00am 19.7 N 15 21 1013.2 - 0.0 - - - - - - -
24/10:30am 17.6 N 15 21 1013.5 - 0.0 Fine Partly cloudy 40 - - - -
24/10:00am 15.6 N 15 21 1013.7 - 0.0 - - - - - - -
24/09:30am 13.8 N 15 21 1014.1 - 0.0 - - - - - - -
24/09:00am 13.1 N 15 20 1014.3 - 0.0 - - - - - - -
24/08:30am 11.4 N 14 19 1014.6 - 0.0 - - - - - - -
24/08:00am 9.9 N 14 20 1014.9 - 0.0 - - - - - - -
24/07:30am 9.4 N 14 18 1014.9 - 0.0 - - - - - - -
24/07:00am 9.2 N 14 19 1014.9 - 0.0 - - - - - - -
24/06:30am 9.0 N 13 18 1014.9 - 0.0 - - - - - - -
24/06:00am 9.3 N 12 17 1015.3 - 0.0 - - - - - - -
24/05:30am 9.7 NNE 13 17 1015.1 - 0.0 - - - - - - -
24/05:00am 10.8 NNE 13 17 1015.5 - 0.0 - - - - - - -
24/04:30am 10.3 NNE 11 16 1016.2 - 0.0 - - - - - - -
24/04:00am 10.4 NNE 11 16 1016.6 - 0.0 - - - - - - -

Other Formats:

Comma delimited format used in spreadsheet applications
http://www.bom.gov.au/fwo/IDS60701/IDS60701.94647.axf

JavaScript Object Notation format (JSON) in row-major order
http://www.bom.gov.au/fwo/IDS60701/IDS60701.94647.json